Time;durP1;ratioP1;P1;durP2;ratioP2;P2;SDS_P1;SDS_P2;PMS_P1;PMS_P2;Temp;Humidity;BMP_temperature;BMP_pressure;BME280_temperature;BME280_humidity;BME280_pressure;Samples;Min_cycle;Max_cycle;Signal;HPM_P1;HPM_P2
2021/04/30 00:00:43;;;;;;;19.23;14.38;;;4.60;79.80;;;;;;5050896;28;20041;-77
2021/04/30 00:03:09;;;;;;;19.58;14.02;;;4.60;79.90;;;;;;5053118;28;20434;-74
2021/04/30 00:05:34;;;;;;;17.13;13.50;;;4.60;80.00;;;;;;5040440;28;20067;-76
2021/04/30 00:08:01;;;;;;;16.65;12.27;;;4.50;79.90;;;;;;5042492;28;20044;-79
2021/04/30 00:10:27;;;;;;;18.33;14.73;;;4.50;80.00;;;;;;5044081;28;20090;-75
2021/04/30 00:12:53;;;;;;;20.75;14.85;;;4.50;80.10;;;;;;5051286;28;20037;-77
2021/04/30 00:15:20;;;;;;;18.48;13.70;;;4.40;80.10;;;;;;5050375;28;20025;-75
2021/04/30 00:17:45;;;;;;;17.27;13.95;;;4.50;80.00;;;;;;5043936;28;20056;-75
2021/04/30 00:20:13;;;;;;;20.92;14.75;;;4.40;80.20;;;;;;5051997;28;20141;-76
2021/04/30 00:22:39;;;;;;;16.58;13.50;;;4.40;80.30;;;;;;5045387;28;20041;-80
2021/04/30 00:25:05;;;;;;;18.27;14.30;;;4.40;80.50;;;;;;5030544;28;20037;-76
2021/04/30 00:27:31;;;;;;;19.38;14.13;;;4.40;80.50;;;;;;5033430;28;20033;-74
2021/04/30 00:29:57;;;;;;;18.63;14.13;;;4.30;80.50;;;;;;5029797;28;20099;-79
2021/04/30 00:32:22;;;;;;;18.40;13.93;;;4.30;80.50;;;;;;5032179;28;20108;-81
2021/04/30 00:34:48;;;;;;;18.85;13.82;;;4.30;80.50;;;;;;5031723;28;20033;-74
2021/04/30 00:37:13;;;;;;;16.73;14.38;;;4.30;80.60;;;;;;5033380;28;20454;-75
2021/04/30 00:39:39;;;;;;;20.27;15.05;;;4.20;80.60;;;;;;5048718;28;20400;-75
2021/04/30 00:42:05;;;;;;;20.08;14.65;;;4.20;80.70;;;;;;5052020;28;20055;-74
2021/04/30 00:44:31;;;;;;;21.38;14.85;;;4.20;80.80;;;;;;5055508;28;20377;-76
2021/04/30 00:46:57;;;;;;;16.67;14.43;;;4.20;80.90;;;;;;5052543;28;20043;-77
2021/04/30 00:49:23;;;;;;;17.35;14.90;;;4.20;80.90;;;;;;5049065;28;20062;-75
2021/04/30 00:51:49;;;;;;;20.80;15.60;;;4.10;81.00;;;;;;5053333;28;20048;-80
2021/04/30 00:54:15;;;;;;;25.42;15.73;;;4.10;81.10;;;;;;5045862;28;20122;-77
2021/04/30 00:56:41;;;;;;;21.23;15.70;;;4.10;81.00;;;;;;5050966;28;20057;-76
2021/04/30 00:59:07;;;;;;;19.95;15.32;;;4.10;81.30;;;;;;5051440;28;20333;-76
2021/04/30 01:01:33;;;;;;;18.83;15.43;;;4.10;81.40;;;;;;5049850;28;20033;-75
2021/04/30 01:03:59;;;;;;;21.48;15.68;;;4.10;81.40;;;;;;5048063;28;20480;-74
2021/04/30 01:06:25;;;;;;;21.55;16.55;;;4.00;81.40;;;;;;5049546;28;20041;-80
2021/04/30 01:08:50;;;;;;;23.00;17.08;;;4.00;81.50;;;;;;5047625;28;20048;-81
2021/04/30 01:11:16;;;;;;;20.20;16.75;;;3.90;81.60;;;;;;5050207;28;20066;-75
2021/04/30 01:13:42;;;;;;;21.77;16.92;;;3.90;81.70;;;;;;5045324;28;20041;-74
2021/04/30 01:16:07;;;;;;;22.08;16.92;;;3.90;81.70;;;;;;5030153;28;20041;-74
2021/04/30 01:18:47;;;;;;;24.80;18.13;;;3.90;81.60;;;;;;5033313;28;20475;-80
2021/04/30 01:21:14;;;;;;;25.95;17.65;;;3.90;81.80;;;;;;5049473;28;20102;-78
2021/04/30 01:23:50;;;;;;;24.45;19.00;;;3.90;82.00;;;;;;5039155;28;20120;-75
2021/04/30 01:26:17;;;;;;;24.60;18.13;;;3.90;82.20;;;;;;5034082;28;21034;-77
2021/04/30 01:28:42;;;;;;;23.48;18.17;;;3.90;82.40;;;;;;5030033;28;20454;-77
2021/04/30 01:31:08;;;;;;;26.05;19.38;;;3.90;82.50;;;;;;5037328;28;20140;-75
2021/04/30 01:33:34;;;;;;;25.83;17.98;;;3.90;82.60;;;;;;5032693;28;20032;-74
2021/04/30 01:36:00;;;;;;;23.63;18.15;;;3.90;82.70;;;;;;5031946;28;20056;-74
2021/04/30 01:38:26;;;;;;;23.38;18.17;;;3.90;82.70;;;;;;5031031;28;20873;-80
2021/04/30 01:40:52;;;;;;;22.35;17.45;;;3.90;82.80;;;;;;5031736;28;20528;-75
2021/04/30 01:43:23;;;;;;;24.85;18.00;;;3.90;82.70;;;;;;5030587;28;20045;-77
2021/04/30 01:45:59;;;;;;;25.98;19.25;;;3.90;82.40;;;;;;5033847;28;20063;-82
2021/04/30 01:48:33;;;;;;;25.70;19.40;;;3.80;82.40;;;;;;5035082;28;20080;-75
2021/04/30 01:51:00;;;;;;;22.42;19.05;;;3.80;82.60;;;;;;5038287;28;20049;-75
2021/04/30 01:53:28;;;;;;;24.15;19.33;;;3.80;82.80;;;;;;5034997;28;20044;-79
2021/04/30 01:55:56;;;;;;;24.02;18.70;;;3.70;82.90;;;;;;5035383;28;20037;-77
2021/04/30 01:58:22;;;;;;;24.65;19.88;;;3.70;82.80;;;;;;5033545;28;20396;-76
2021/04/30 02:00:48;;;;;;;23.58;19.02;;;3.70;82.80;;;;;;5036020;28;20033;-75
2021/04/30 02:03:14;;;;;;;25.52;20.23;;;3.70;82.80;;;;;;5035803;28;20044;-73
2021/04/30 02:05:40;;;;;;;27.83;20.15;;;3.70;83.00;;;;;;5045044;28;20033;-78
2021/04/30 02:08:16;;;;;;;26.67;20.08;;;3.70;82.90;;;;;;5033801;28;20293;-78
2021/04/30 02:10:43;;;;;;;26.75;19.45;;;3.60;83.00;;;;;;5032248;28;20157;-77
2021/04/30 02:13:09;;;;;;;22.10;18.33;;;3.60;83.10;;;;;;5034048;28;20438;-74
2021/04/30 02:15:41;;;;;;;23.00;19.67;;;3.60;83.10;;;;;;5033290;28;20037;-78
2021/04/30 02:18:07;;;;;;;24.65;19.70;;;3.60;83.00;;;;;;5029047;28;20037;-75
2021/04/30 02:20:33;;;;;;;24.05;20.08;;;3.60;82.90;;;;;;5032404;28;20036;-74
2021/04/30 02:23:00;;;;;;;28.23;20.90;;;3.60;83.00;;;;;;5032569;28;20056;-75
2021/04/30 02:25:26;;;;;;;23.35;19.27;;;3.50;83.00;;;;;;5031844;28;21750;-78
2021/04/30 02:27:53;;;;;;;25.65;19.77;;;3.50;83.10;;;;;;5035848;28;20473;-77
2021/04/30 02:30:20;;;;;;;24.08;18.85;;;3.50;83.20;;;;;;5034535;28;20147;-75
2021/04/30 02:32:47;;;;;;;26.83;20.92;;;3.50;83.10;;;;;;5035079;28;20039;-74
2021/04/30 02:35:34;;;;;;;26.45;20.30;;;3.40;83.20;;;;;;5035338;28;20056;-74
2021/04/30 02:38:00;;;;;;;24.55;19.65;;;3.40;83.30;;;;;;5033812;28;20037;-74
2021/04/30 02:40:29;;;;;;;25.08;20.05;;;3.40;83.30;;;;;;5033726;28;20064;-77
2021/04/30 02:42:57;;;;;;;25.40;19.77;;;3.40;83.40;;;;;;5033025;28;20392;-76
2021/04/30 02:45:24;;;;;;;24.60;19.95;;;3.40;83.30;;;;;;5030076;28;20536;-76
2021/04/30 02:47:51;;;;;;;25.17;19.90;;;3.40;83.10;;;;;;5037509;28;20523;-75
2021/04/30 02:50:20;;;;;;;24.50;19.60;;;3.30;83.10;;;;;;5034501;28;20489;-80
2021/04/30 02:52:46;;;;;;;26.10;20.65;;;3.30;83.00;;;;;;5034402;28;20040;-74
2021/04/30 02:55:14;;;;;;;25.45;20.80;;;3.20;82.90;;;;;;5032589;28;20049;-74
2021/04/30 02:57:40;;;;;;;25.25;20.38;;;3.20;83.00;;;;;;5033088;28;20477;-76
2021/04/30 03:00:08;;;;;;;28.05;21.95;;;3.20;83.20;;;;;;5033637;28;20040;-79
2021/04/30 03:02:34;;;;;;;27.70;21.63;;;3.20;83.50;;;;;;5030637;28;20124;-76
2021/04/30 03:05:00;;;;;;;25.63;22.10;;;3.20;83.60;;;;;;5026715;28;20083;-80
2021/04/30 03:07:25;;;;;;;27.77;21.60;;;3.20;83.80;;;;;;5033289;28;20063;-75
2021/04/30 03:09:51;;;;;;;31.48;23.52;;;3.20;83.90;;;;;;5030293;28;20041;-76
2021/04/30 03:12:17;;;;;;;25.75;20.45;;;3.20;84.00;;;;;;5032147;28;20119;-74
2021/04/30 03:14:43;;;;;;;29.17;22.58;;;3.20;84.00;;;;;;5035834;28;20037;-73
2021/04/30 03:17:08;;;;;;;25.17;22.25;;;3.20;83.80;;;;;;5034234;28;20037;-77
2021/04/30 03:19:34;;;;;;;29.48;23.20;;;3.10;83.70;;;;;;5034924;28;20040;-76
2021/04/30 03:22:00;;;;;;;26.88;22.63;;;3.10;83.80;;;;;;5041100;28;20032;-77
2021/04/30 03:24:25;;;;;;;28.02;22.98;;;3.10;84.00;;;;;;5053970;28;20028;-74
2021/04/30 03:26:51;;;;;;;26.40;21.67;;;3.10;84.10;;;;;;5051878;28;20064;-79
2021/04/30 03:29:17;;;;;;;29.38;22.27;;;3.10;84.10;;;;;;5048024;28;20429;-77
2021/04/30 03:31:42;;;;;;;28.00;23.05;;;3.00;84.10;;;;;;5040496;28;20067;-76
2021/04/30 03:34:09;;;;;;;27.98;22.00;;;3.00;84.10;;;;;;5052173;28;20107;-77
2021/04/30 03:36:35;;;;;;;26.52;22.50;;;3.00;84.30;;;;;;5046592;28;20028;-74
2021/04/30 03:39:02;;;;;;;30.48;22.48;;;3.00;84.30;;;;;;5054633;28;20048;-73
2021/04/30 03:41:29;;;;;;;28.45;22.83;;;3.00;84.20;;;;;;5058547;28;20341;-73
2021/04/30 03:43:55;;;;;;;29.88;22.23;;;3.00;84.20;;;;;;5056450;28;20060;-80
2021/04/30 03:46:21;;;;;;;28.88;22.75;;;3.00;84.00;;;;;;5051886;28;20083;-75
2021/04/30 03:48:46;;;;;;;28.50;22.38;;;2.90;83.80;;;;;;5059557;28;20048;-75
2021/04/30 03:51:12;;;;;;;26.42;21.60;;;2.90;83.60;;;;;;5054697;28;20132;-80
2021/04/30 03:53:38;;;;;;;29.65;23.10;;;2.90;83.70;;;;;;5048256;28;20119;-74
2021/04/30 03:56:04;;;;;;;27.20;21.52;;;2.90;83.70;;;;;;5030189;28;20442;-80
2021/04/30 03:58:29;;;;;;;29.63;22.63;;;2.90;83.80;;;;;;5053956;28;20025;-75
2021/04/30 04:00:55;;;;;;;33.38;21.88;;;2.80;83.80;;;;;;5053774;28;20032;-76
2021/04/30 04:03:21;;;;;;;26.45;22.08;;;2.80;83.90;;;;;;5055938;28;20044;-75
2021/04/30 04:05:46;;;;;;;29.05;23.65;;;2.80;84.00;;;;;;5052671;28;20578;-75
2021/04/30 04:08:12;;;;;;;29.73;22.77;;;2.80;83.80;;;;;;5051359;28;20081;-77
2021/04/30 04:10:38;;;;;;;29.13;23.55;;;2.80;83.40;;;;;;5060364;28;20040;-74
2021/04/30 04:13:23;;;;;;;31.58;26.08;;;2.70;83.50;;;;;;5054061;28;20041;-77
2021/04/30 04:15:50;;;;;;;33.10;26.45;;;2.70;83.70;;;;;;5054321;28;20411;-75
2021/04/30 04:18:18;;;;;;;35.13;29.73;;;2.70;83.80;;;;;;5061530;28;20101;-78
2021/04/30 04:20:44;;;;;;;33.03;28.67;;;2.70;84.00;;;;;;5051692;28;20032;-77
2021/04/30 04:23:10;;;;;;;31.85;27.27;;;2.70;84.20;;;;;;5056142;28;20040;-77
2021/04/30 04:25:36;;;;;;;29.65;25.75;;;2.70;84.40;;;;;;5050087;28;20424;-80
2021/04/30 04:28:03;;;;;;;32.47;27.23;;;2.80;84.60;;;;;;5054286;28;20075;-76
2021/04/30 04:30:28;;;;;;;33.85;27.83;;;2.80;84.70;;;;;;5053723;28;20170;-75
2021/04/30 04:32:54;;;;;;;36.72;29.27;;;2.80;84.60;;;;;;5054606;28;20059;-75
2021/04/30 04:35:20;;;;;;;36.22;31.58;;;2.80;84.60;;;;;;5052289;28;20044;-75
2021/04/30 04:37:46;;;;;;;41.22;30.67;;;2.80;84.70;;;;;;5053627;28;21521;-74
2021/04/30 04:40:13;;;;;;;42.00;30.23;;;2.90;84.70;;;;;;5048567;28;20153;-83
2021/04/30 04:42:39;;;;;;;33.45;27.80;;;3.00;84.70;;;;;;5036894;28;20041;-78
2021/04/30 04:45:07;;;;;;;36.72;28.45;;;3.00;84.80;;;;;;5048617;28;20499;-78
2021/04/30 04:47:32;;;;;;;31.25;27.10;;;3.00;84.70;;;;;;5051370;28;20097;-76
2021/04/30 04:49:58;;;;;;;36.85;28.10;;;3.00;84.70;;;;;;5049345;28;20048;-80
2021/04/30 04:52:24;;;;;;;32.80;25.75;;;3.10;84.60;;;;;;5050020;28;20461;-74
2021/04/30 04:54:50;;;;;;;33.17;27.73;;;3.10;84.60;;;;;;5046103;28;20068;-76
2021/04/30 04:57:15;;;;;;;32.15;26.85;;;3.10;84.30;;;;;;5047851;28;20106;-77
2021/04/30 04:59:41;;;;;;;32.08;26.77;;;3.10;84.20;;;;;;5049707;28;20119;-80
2021/04/30 05:02:07;;;;;;;32.72;27.23;;;3.20;83.90;;;;;;5048202;28;20040;-78
2021/04/30 05:04:32;;;;;;;33.20;26.85;;;3.20;83.90;;;;;;5048721;28;20063;-82
2021/04/30 05:06:58;;;;;;;38.47;29.05;;;3.30;83.80;;;;;;5047153;28;20087;-74
2021/04/30 05:09:24;;;;;;;36.72;30.92;;;3.40;83.90;;;;;;5044149;28;20049;-83
2021/04/30 05:11:50;;;;;;;37.35;29.90;;;3.50;84.00;;;;;;5032821;28;20037;-74
2021/04/30 05:14:16;;;;;;;42.15;30.58;;;3.60;84.00;;;;;;5028061;28;20695;-80
2021/04/30 05:16:41;;;;;;;41.08;31.67;;;3.60;83.80;;;;;;5032042;28;20041;-77
2021/04/30 05:19:08;;;;;;;37.75;29.90;;;3.80;83.70;;;;;;5031416;28;20045;-75
2021/04/30 05:21:35;;;;;;;39.15;31.48;;;3.80;83.70;;;;;;5033118;28;20064;-76
2021/04/30 05:24:00;;;;;;;40.80;30.27;;;3.90;83.50;;;;;;5029666;28;20026;-76
2021/04/30 05:26:29;;;;;;;37.17;29.90;;;4.00;83.30;;;;;;5031700;28;20262;-74
2021/04/30 05:28:59;;;;;;;38.92;31.45;;;4.10;83.20;;;;;;5031982;28;20052;-75
2021/04/30 05:31:25;;;;;;;37.83;31.92;;;4.20;83.10;;;;;;5031718;28;20369;-69
2021/04/30 05:33:51;;;;;;;38.33;32.10;;;4.40;83.00;;;;;;5034644;28;20115;-69
2021/04/30 05:36:17;;;;;;;38.78;31.50;;;4.50;82.90;;;;;;5030805;28;20145;-67
2021/04/30 05:38:43;;;;;;;38.50;32.22;;;4.60;82.60;;;;;;5031378;28;20032;-71
2021/04/30 05:41:09;;;;;;;41.88;32.65;;;4.70;82.40;;;;;;5033828;28;20049;-71
2021/04/30 05:43:34;;;;;;;41.47;31.88;;;4.80;82.30;;;;;;5035888;28;20076;-68
2021/04/30 05:46:00;;;;;;;41.40;32.13;;;4.90;82.30;;;;;;5034159;28;20156;-73
2021/04/30 05:48:26;;;;;;;42.97;34.22;;;5.00;82.10;;;;;;5035370;28;20047;-69
2021/04/30 05:50:51;;;;;;;39.63;33.67;;;5.10;82.00;;;;;;5031604;28;20040;-71
2021/04/30 05:53:17;;;;;;;46.58;34.80;;;5.20;82.00;;;;;;5034051;28;20524;-69
2021/04/30 05:55:43;;;;;;;43.42;36.03;;;5.30;81.90;;;;;;5034327;28;20114;-69
2021/04/30 05:58:09;;;;;;;47.15;35.75;;;5.40;82.10;;;;;;5034775;28;20654;-69
2021/04/30 06:00:35;;;;;;;48.17;36.35;;;5.50;81.70;;;;;;5037522;28;20040;-71
2021/04/30 06:03:00;;;;;;;44.30;36.63;;;5.70;81.90;;;;;;5051155;28;20040;-68
2021/04/30 06:05:26;;;;;;;46.42;36.63;;;5.90;81.70;;;;;;5051832;28;20055;-71
2021/04/30 06:07:51;;;;;;;45.58;36.47;;;6.10;81.60;;;;;;5053902;28;20040;-73
2021/04/30 06:10:17;;;;;;;44.47;35.13;;;6.20;81.30;;;;;;5054874;28;20091;-69
2021/04/30 06:12:43;;;;;;;41.17;33.40;;;6.40;80.80;;;;;;5050369;28;20041;-68
2021/04/30 06:15:09;;;;;;;40.85;35.47;;;6.50;80.00;;;;;;5050183;28;20068;-72
2021/04/30 06:17:35;;;;;;;43.08;34.17;;;6.70;79.90;;;;;;5051781;28;20037;-73
2021/04/30 06:20:00;;;;;;;44.25;35.65;;;6.80;79.50;;;;;;5053696;28;20573;-72
2021/04/30 06:22:26;;;;;;;43.72;39.03;;;6.90;79.30;;;;;;5054887;28;20579;-70
2021/04/30 06:24:52;;;;;;;42.05;33.85;;;7.10;79.00;;;;;;5042398;28;20159;-68
2021/04/30 06:27:17;;;;;;;39.65;33.65;;;7.20;78.60;;;;;;5041913;28;20548;-68
2021/04/30 06:29:43;;;;;;;37.75;31.70;;;7.30;77.50;;;;;;5048315;28;21129;-69
2021/04/30 06:32:09;;;;;;;42.45;32.42;;;7.50;77.60;;;;;;5052342;28;20056;-70
2021/04/30 06:34:35;;;;;;;43.55;33.05;;;7.70;77.10;;;;;;5053939;28;20040;-70
2021/04/30 06:37:01;;;;;;;44.33;33.28;;;8.00;77.10;;;;;;5050510;28;20091;-69
2021/04/30 06:39:27;;;;;;;40.22;32.90;;;8.10;76.10;;;;;;5049269;28;20413;-69
2021/04/30 06:41:53;;;;;;;41.03;33.75;;;8.10;76.40;;;;;;5052539;28;20041;-69
2021/04/30 06:44:19;;;;;;;46.92;35.25;;;8.40;76.60;;;;;;5052323;28;20044;-71
2021/04/30 06:46:45;;;;;;;42.03;33.28;;;8.60;76.20;;;;;;5049497;28;20040;-70
2021/04/30 06:49:10;;;;;;;41.85;32.88;;;8.70;75.20;;;;;;5051151;28;20042;-68
2021/04/30 06:51:36;;;;;;;37.78;30.45;;;8.70;75.20;;;;;;5051071;28;20574;-72
2021/04/30 06:54:02;;;;;;;32.35;28.23;;;8.80;74.50;;;;;;5045507;28;20037;-70
2021/04/30 06:56:29;;;;;;;32.15;26.73;;;9.10;73.50;;;;;;5045931;28;20499;-72
2021/04/30 06:58:55;;;;;;;34.60;27.20;;;9.20;72.20;;;;;;5051074;28;20114;-72
2021/04/30 07:01:21;;;;;;;33.78;25.42;;;9.30;72.90;;;;;;5052604;28;20060;-68
2021/04/30 07:03:46;;;;;;;31.17;26.08;;;9.10;73.00;;;;;;5044031;28;20029;-72
2021/04/30 07:06:16;;;;;;;30.33;24.80;;;9.30;72.60;;;;;;5032894;28;20033;-70
2021/04/30 07:08:42;;;;;;;30.23;25.05;;;9.50;72.00;;;;;;5052848;28;20081;-69
2021/04/30 07:11:08;;;;;;;31.52;25.55;;;9.70;72.20;;;;;;5052048;28;20045;-70
2021/04/30 07:13:35;;;;;;;30.90;22.67;;;9.80;71.50;;;;;;5042901;28;20072;-71
2021/04/30 07:16:02;;;;;;;29.48;23.85;;;9.80;71.40;;;;;;5046826;28;20039;-68
2021/04/30 07:18:27;;;;;;;28.98;22.17;;;9.90;70.50;;;;;;5044621;28;20037;-68
2021/04/30 07:20:54;;;;;;;30.40;22.67;;;9.70;70.90;;;;;;5036699;28;20268;-68
2021/04/30 07:23:19;;;;;;;32.47;23.45;;;9.70;71.20;;;;;;5053337;28;20040;-69
2021/04/30 07:25:45;;;;;;;23.85;17.83;;;9.70;72.20;;;;;;5051905;28;20036;-69
2021/04/30 07:28:11;;;;;;;26.42;18.17;;;9.80;71.50;;;;;;5041542;28;20047;-73
2021/04/30 07:30:37;;;;;;;23.30;20.23;;;9.90;71.20;;;;;;5048126;28;20048;-74
2021/04/30 07:33:03;;;;;;;29.90;20.60;;;9.90;71.70;;;;;;5049609;28;20476;-70
2021/04/30 07:35:29;;;;;;;24.98;19.35;;;10.10;70.70;;;;;;5050005;28;20039;-72
2021/04/30 07:37:54;;;;;;;28.15;20.30;;;10.00;70.50;;;;;;5052554;28;20048;-74
2021/04/30 07:40:20;;;;;;;28.70;19.33;;;9.80;71.30;;;;;;5052960;28;20071;-69
2021/04/30 07:42:46;;;;;;;22.52;15.25;;;10.00;70.80;;;;;;5035448;28;20033;-70
2021/04/30 07:45:12;;;;;;;24.55;17.88;;;10.00;69.50;;;;;;5049066;28;20059;-74
2021/04/30 07:47:38;;;;;;;23.77;15.48;;;10.00;71.40;;;;;;5050171;28;20110;-71
2021/04/30 07:50:05;;;;;;;21.08;16.70;;;10.20;69.80;;;;;;5048795;28;20488;-69
2021/04/30 07:52:31;;;;;;;20.35;15.85;;;10.20;70.30;;;;;;5052574;28;20039;-70
2021/04/30 07:54:57;;;;;;;25.30;15.70;;;10.30;70.50;;;;;;5048972;28;20029;-72
2021/04/30 07:57:23;;;;;;;18.73;14.07;;;10.20;70.40;;;;;;5048656;28;20114;-68
2021/04/30 07:59:48;;;;;;;22.70;16.83;;;10.40;70.30;;;;;;5051641;28;20500;-69
2021/04/30 08:02:14;;;;;;;20.95;16.02;;;10.60;70.40;;;;;;5052651;28;20056;-69
2021/04/30 08:04:40;;;;;;;22.02;12.27;;;10.80;68.80;;;;;;5049466;28;20035;-71
2021/04/30 08:07:05;;;;;;;21.85;14.93;;;10.60;68.50;;;;;;5049470;28;20033;-71
2021/04/30 08:09:31;;;;;;;21.33;14.57;;;10.60;69.30;;;;;;5054136;28;20461;-69
2021/04/30 08:11:57;;;;;;;20.88;15.90;;;10.70;68.60;;;;;;5049803;28;20467;-69
2021/04/30 08:14:22;;;;;;;20.48;14.65;;;11.10;69.00;;;;;;5048783;28;20044;-67
2021/04/30 08:16:48;;;;;;;20.58;15.27;;;11.10;68.10;;;;;;5036499;28;20037;-70
2021/04/30 08:19:14;;;;;;;20.58;15.68;;;10.60;68.00;;;;;;5048432;28;20043;-68
2021/04/30 08:21:39;;;;;;;23.63;15.30;;;11.10;68.30;;;;;;5052259;28;20028;-68
2021/04/30 08:24:05;;;;;;;19.77;14.15;;;11.50;65.50;;;;;;5053070;28;20036;-68
2021/04/30 08:26:31;;;;;;;18.30;13.50;;;11.60;65.10;;;;;;5051998;28;20668;-72
2021/04/30 08:28:57;;;;;;;17.10;12.82;;;11.70;63.70;;;;;;5051072;28;20036;-71
2021/04/30 08:31:23;;;;;;;22.35;14.23;;;11.80;60.60;;;;;;5052201;28;20028;-72
2021/04/30 08:33:50;;;;;;;20.20;13.55;;;11.30;60.90;;;;;;5051727;28;20041;-68
2021/04/30 08:36:16;;;;;;;20.10;14.60;;;11.10;62.50;;;;;;5047989;28;20068;-71
2021/04/30 08:38:43;;;;;;;21.25;14.18;;;11.30;63.10;;;;;;5047791;28;20041;-72
2021/04/30 08:41:08;;;;;;;19.08;13.43;;;11.40;63.80;;;;;;5039078;28;20124;-71
2021/04/30 08:43:36;;;;;;;19.50;13.43;;;11.60;61.20;;;;;;5032915;28;20080;-72
2021/04/30 08:46:04;;;;;;;17.98;14.77;;;11.60;60.20;;;;;;5029863;28;20037;-68
2021/04/30 08:48:32;;;;;;;20.42;14.15;;;11.90;61.20;;;;;;5029157;28;20025;-72
2021/04/30 08:50:58;;;;;;;17.30;11.48;;;11.90;60.60;;;;;;5033681;28;20542;-70
2021/04/30 08:53:24;;;;;;;16.42;11.73;;;11.60;58.50;;;;;;5036354;28;20029;-70
2021/04/30 08:55:51;;;;;;;18.70;11.98;;;11.10;58.30;;;;;;5039366;28;20057;-71
2021/04/30 08:58:27;;;;;;;17.25;12.82;;;11.10;60.10;;;;;;5036834;28;20041;-72
2021/04/30 09:00:54;;;;;;;18.60;13.07;;;11.60;59.90;;;;;;5034262;28;20484;-69
2021/04/30 09:03:20;;;;;;;14.85;12.30;;;12.00;59.90;;;;;;5035660;28;20037;-69
2021/04/30 09:05:51;;;;;;;19.38;13.25;;;12.30;58.80;;;;;;5029483;28;20029;-68
2021/04/30 09:08:18;;;;;;;18.40;12.23;;;12.60;57.40;;;;;;5033055;28;20047;-68
2021/04/30 09:10:49;;;;;;;16.73;11.40;;;13.10;56.20;;;;;;5034878;28;20702;-68
2021/04/30 09:13:20;;;;;;;22.48;12.13;;;13.60;54.40;;;;;;5035232;28;20365;-71
2021/04/30 09:15:48;;;;;;;16.23;11.50;;;14.10;53.80;;;;;;5032471;28;20029;-68
2021/04/30 09:18:28;;;;;;;15.43;11.57;;;14.10;53.40;;;;;;5031520;28;20039;-73
2021/04/30 09:21:04;;;;;;;16.52;10.85;;;13.80;50.00;;;;;;5031232;28;20608;-73
2021/04/30 09:23:34;;;;;;;17.13;11.98;;;13.10;51.50;;;;;;5034286;28;20036;-71
2021/04/30 09:26:19;;;;;;;16.60;12.55;;;12.50;54.00;;;;;;5032306;28;20376;-69
2021/04/30 09:28:58;;;;;;;16.13;12.60;;;12.10;55.30;;;;;;5050528;28;20036;-68
2021/04/30 09:31:44;;;;;;;15.98;12.68;;;12.00;56.40;;;;;;5058908;28;20040;-70
2021/04/30 09:34:30;;;;;;;17.00;12.25;;;11.70;56.40;;;;;;5059588;28;20039;-67
2021/04/30 09:37:13;;;;;;;15.40;11.65;;;12.10;54.10;;;;;;5042713;28;20490;-69
2021/04/30 09:39:57;;;;;;;18.13;11.35;;;12.50;52.30;;;;;;5049923;28;20041;-68
2021/04/30 09:42:28;;;;;;;18.52;11.50;;;13.20;51.90;;;;;;5052879;28;20036;-73
2021/04/30 09:44:57;;;;;;;15.35;10.73;;;13.90;50.40;;;;;;5054176;28;20479;-72
2021/04/30 09:47:28;;;;;;;15.88;10.38;;;14.10;47.60;;;;;;5050882;28;20048;-69
2021/04/30 09:49:58;;;;;;;14.15;9.88;;;14.00;46.20;;;;;;5050665;28;20043;-68
2021/04/30 09:52:26;;;;;;;15.70;9.85;;;13.60;48.40;;;;;;5054068;28;20056;-74
2021/04/30 09:54:53;;;;;;;14.57;10.32;;;14.00;47.10;;;;;;5052851;28;20040;-68
2021/04/30 09:57:21;;;;;;;14.50;10.43;;;14.20;46.10;;;;;;5053457;28;20033;-69
2021/04/30 09:59:54;;;;;;;15.52;10.93;;;14.10;48.50;;;;;;5052111;28;20040;-70
2021/04/30 10:02:25;;;;;;;12.13;10.02;;;13.30;48.60;;;;;;5052784;28;20040;-72
2021/04/30 10:04:53;;;;;;;15.52;11.05;;;12.80;50.80;;;;;;5050976;28;21634;-72
2021/04/30 10:07:35;;;;;;;17.77;11.10;;;12.30;56.40;;;;;;5029319;28;20066;-71
2021/04/30 10:10:17;;;;;;;15.75;10.85;;;11.60;60.20;;;;;;5030552;28;20057;-70
2021/04/30 10:12:48;;;;;;;15.80;10.77;;;11.10;61.70;;;;;;5043305;28;20057;-70
2021/04/30 10:15:15;;;;;;;14.80;11.50;;;10.80;62.30;;;;;;5050548;28;20044;-73
2021/04/30 10:17:41;;;;;;;15.30;10.73;;;10.70;62.30;;;;;;5052816;28;20032;-69
2021/04/30 10:20:12;;;;;;;15.35;10.35;;;10.70;63.90;;;;;;5051272;28;20048;-69
2021/04/30 10:22:40;;;;;;;16.25;10.65;;;10.60;61.60;;;;;;5051769;28;20447;-73
2021/04/30 10:25:10;;;;;;;14.15;10.82;;;10.50;62.60;;;;;;5051171;28;20040;-71
2021/04/30 10:27:37;;;;;;;14.35;9.80;;;10.50;63.40;;;;;;5054468;28;20025;-69
2021/04/30 10:30:09;;;;;;;14.30;10.77;;;10.40;64.30;;;;;;5051053;28;20041;-69
2021/04/30 10:33:10;;;;;;;16.85;10.57;;;10.50;64.80;;;;;;5062109;28;20040;-68
2021/04/30 10:35:41;;;;;;;17.52;10.48;;;10.60;63.90;;;;;;5061900;28;20554;-68
2021/04/30 10:38:12;;;;;;;13.73;9.90;;;10.60;64.20;;;;;;5045046;28;20540;-70
2021/04/30 10:41:01;;;;;;;16.23;9.88;;;10.60;64.40;;;;;;5062097;28;20481;-72
2021/04/30 10:43:27;;;;;;;13.95;9.60;;;10.60;64.60;;;;;;5051974;28;20382;-69
2021/04/30 10:46:02;;;;;;;12.55;9.43;;;10.70;63.40;;;;;;5042800;28;20107;-71
2021/04/30 10:48:28;;;;;;;13.85;9.95;;;10.80;63.70;;;;;;5040955;28;20041;-68
2021/04/30 10:51:16;;;;;;;16.63;9.65;;;10.80;63.30;;;;;;5056806;28;20422;-71
2021/04/30 10:53:43;;;;;;;13.10;9.02;;;10.80;63.50;;;;;;5047053;28;20075;-70
2021/04/30 10:56:34;;;;;;;13.25;8.70;;;10.80;62.50;;;;;;5054284;28;20136;-69
2021/04/30 10:59:00;;;;;;;13.00;9.75;;;10.90;60.80;;;;;;5052705;28;20164;-71
2021/04/30 11:01:34;;;;;;;14.05;9.10;;;10.90;61.00;;;;;;5057705;28;20056;-68
2021/04/30 11:04:09;;;;;;;15.25;9.27;;;10.90;61.90;;;;;;5055533;28;20037;-68
2021/04/30 11:06:40;;;;;;;15.10;8.82;;;11.00;61.20;;;;;;5060264;28;20055;-68
2021/04/30 11:09:12;;;;;;;14.45;8.82;;;11.00;59.70;;;;;;5054657;28;20054;-72
2021/04/30 11:11:43;;;;;;;13.73;9.15;;;11.10;59.60;;;;;;5059353;28;20540;-68
2021/04/30 11:14:18;;;;;;;15.50;10.23;;;11.10;60.40;;;;;;5057212;28;20052;-68
2021/04/30 11:16:45;;;;;;;15.93;9.10;;;11.10;61.60;;;;;;5056540;28;20090;-73
2021/04/30 11:19:10;;;;;;;16.15;8.90;;;11.30;60.80;;;;;;5058126;28;20063;-67
2021/04/30 11:21:41;;;;;;;13.65;8.73;;;11.30;60.30;;;;;;5039447;28;20033;-68
2021/04/30 11:24:51;;;;;;;15.70;10.00;;;11.50;60.30;;;;;;5059867;28;20041;-68
2021/04/30 11:27:29;;;;;;;16.85;9.98;;;11.30;59.80;;;;;;5028895;28;20257;-70
2021/04/30 11:30:17;;;;;;;16.52;9.02;;;11.50;60.90;;;;;;5048903;28;20116;-68
2021/04/30 11:32:49;;;;;;;15.57;9.50;;;11.50;58.30;;;;;;5051792;28;20499;-69
2021/04/30 11:35:15;;;;;;;14.75;9.57;;;11.50;59.00;;;;;;5053691;28;20036;-68
2021/04/30 11:37:42;;;;;;;15.57;9.57;;;11.60;59.40;;;;;;5066279;28;20104;-68
2021/04/30 11:40:12;;;;;;;14.13;9.52;;;12.00;59.50;;;;;;5056217;28;20125;-68
2021/04/30 11:42:39;;;;;;;15.82;9.38;;;12.10;58.40;;;;;;5046927;28;20029;-67
2021/04/30 11:45:06;;;;;;;16.63;9.93;;;12.20;57.70;;;;;;5046464;28;20039;-71
2021/04/30 11:47:37;;;;;;;13.77;9.73;;;12.50;57.50;;;;;;5053980;28;20111;-70
2021/04/30 11:50:06;;;;;;;15.05;8.88;;;13.20;56.50;;;;;;5069005;28;20044;-70
2021/04/30 11:52:36;;;;;;;14.68;9.05;;;13.40;54.30;;;;;;5055423;28;20032;-70
2021/04/30 11:55:17;;;;;;;14.60;9.77;;;13.30;52.90;;;;;;5054440;28;20044;-69
2021/04/30 11:57:55;;;;;;;13.32;9.02;;;13.00;53.90;;;;;;5065889;28;20535;-68
2021/04/30 12:00:24;;;;;;;14.02;9.02;;;12.60;55.80;;;;;;5065388;28;20079;-69
2021/04/30 12:03:00;;;;;;;19.10;9.73;;;12.60;53.80;;;;;;5053999;28;20737;-67
2021/04/30 12:05:26;;;;;;;14.70;9.43;;;12.40;54.20;;;;;;5058907;28;20067;-68
2021/04/30 12:07:52;;;;;;;14.15;10.05;;;12.30;54.80;;;;;;5055975;28;20403;-69
2021/04/30 12:10:21;;;;;;;13.10;9.40;;;12.60;55.60;;;;;;5061605;28;20080;-70
2021/04/30 12:12:47;;;;;;;14.75;9.25;;;12.60;55.20;;;;;;5058114;28;20029;-68
2021/04/30 12:15:18;;;;;;;13.90;9.57;;;12.60;54.20;;;;;;5068563;28;20028;-68
2021/04/30 12:17:45;;;;;;;14.48;9.55;;;12.90;55.70;;;;;;5064730;28;20097;-70
2021/04/30 12:20:23;;;;;;;11.70;9.57;;;12.90;54.10;;;;;;5061726;28;20036;-69
2021/04/30 12:22:57;;;;;;;13.82;9.13;;;12.80;55.20;;;;;;5065008;28;20353;-69
2021/04/30 12:25:27;;;;;;;15.00;9.23;;;13.00;54.10;;;;;;5064906;28;20037;-67
2021/04/30 12:27:55;;;;;;;13.18;8.73;;;13.40;53.60;;;;;;5060961;28;20387;-68
2021/04/30 12:30:30;;;;;;;14.35;9.45;;;13.60;53.20;;;;;;5064004;28;20440;-69
2021/04/30 12:32:58;;;;;;;13.75;9.57;;;13.50;50.70;;;;;;5059776;28;20060;-67
2021/04/30 12:35:25;;;;;;;12.18;9.13;;;13.20;51.20;;;;;;5061633;28;20033;-71
2021/04/30 12:37:51;;;;;;;13.82;9.68;;;13.20;50.20;;;;;;5053382;28;20123;-68
2021/04/30 12:40:22;;;;;;;14.95;9.20;;;13.10;51.10;;;;;;5064222;28;20574;-68